createdAt,value
2023-11-28T00:01:57.023Z,-1.11
2023-11-28T00:04:25.178Z,-1.02
2023-11-28T00:06:53.795Z,-0.77
2023-11-28T00:09:20.817Z,-1.11
2023-11-28T00:11:48.910Z,-0.79
2023-11-28T00:14:16.186Z,-0.88
2023-11-28T00:16:43.277Z,-0.94
2023-11-28T00:19:10.466Z,-1.20
2023-11-28T00:21:37.653Z,-0.90
2023-11-28T00:24:07.481Z,-1.10
2023-11-28T00:26:34.797Z,-0.94
2023-11-28T00:29:02.314Z,-0.96
2023-11-28T00:31:29.288Z,-1.13
2023-11-28T00:33:56.530Z,-1.00
2023-11-28T00:36:23.786Z,-0.97
2023-11-28T00:38:50.678Z,-0.87
2023-11-28T00:41:17.868Z,-0.96
2023-11-28T00:43:45.139Z,-0.94
2023-11-28T00:46:15.328Z,-0.95
2023-11-28T00:48:42.193Z,-0.91
2023-11-28T00:51:09.370Z,-0.93
2023-11-28T00:53:36.542Z,-0.79
2023-11-28T00:56:03.535Z,-1.06
2023-11-28T00:58:30.853Z,-1.14
2023-11-28T01:00:57.806Z,-0.94
2023-11-28T01:03:24.759Z,-1.17
2023-11-28T01:05:51.699Z,-0.95
2023-11-28T01:08:18.534Z,-0.96
2023-11-28T01:10:45.560Z,-1.07
2023-11-28T01:13:12.887Z,-1.06
2023-11-28T01:15:39.826Z,-1.13
2023-11-28T01:18:08.427Z,-1.22
2023-11-28T01:20:35.432Z,-1.40
2023-11-28T01:23:02.515Z,-1.27
2023-11-28T01:25:29.493Z,-1.37
2023-11-28T01:27:57.106Z,-1.44
2023-11-28T01:30:24.129Z,-1.32
2023-11-28T01:32:51.489Z,-1.18
2023-11-28T01:35:19.589Z,-1.21
2023-11-28T01:37:46.605Z,-1.13
2023-11-28T01:40:17.982Z,-1.20
2023-11-28T01:42:47.994Z,-1.52
2023-11-28T01:45:14.971Z,-1.42
2023-11-28T01:47:45.101Z,-1.33
2023-11-28T01:50:12.483Z,-1.16
2023-11-28T01:52:39.776Z,-1.12
2023-11-28T01:55:07.279Z,-1.34
2023-11-28T01:57:34.128Z,-1.17
2023-11-28T02:00:02.038Z,-1.20
2023-11-28T02:02:31.526Z,-1.23
2023-11-28T02:05:00.363Z,-1.38
2023-11-28T02:07:27.219Z,-1.21
2023-11-28T02:09:57.626Z,-1.16
2023-11-28T02:12:24.597Z,-1.19
2023-11-28T02:14:51.630Z,-1.29
2023-11-28T02:17:18.612Z,-1.18
2023-11-28T02:19:48.703Z,-1.16
2023-11-28T02:22:15.844Z,-1.10
2023-11-28T02:24:44.186Z,-1.21
2023-11-28T02:27:11.050Z,-1.51
2023-11-28T02:29:38.034Z,-1.22
2023-11-28T02:32:05.359Z,-1.16
2023-11-28T02:34:32.542Z,-1.32
2023-11-28T02:36:59.644Z,-1.14
2023-11-28T02:39:29.420Z,-1.24
2023-11-28T02:41:56.359Z,-1.25
2023-11-28T02:44:23.274Z,-1.36
2023-11-28T02:46:50.287Z,-1.52
2023-11-28T02:49:17.320Z,-1.33
2023-11-28T02:51:44.164Z,-1.29
2023-11-28T02:54:11.050Z,-1.45
2023-11-28T02:56:37.901Z,-1.83
2023-11-28T02:59:04.873Z,-1.86
2023-11-28T03:01:32.145Z,-1.95
2023-11-28T03:03:59.136Z,-1.81
2023-11-28T03:06:26.018Z,-1.91
2023-11-28T03:08:54.173Z,-2.08
2023-11-28T03:11:21.108Z,-2.12
2023-11-28T03:13:48.289Z,-2.31
2023-11-28T03:16:15.405Z,-2.30
2023-11-28T03:18:42.383Z,-2.29
2023-11-28T03:21:09.835Z,-2.39
2023-11-28T03:23:36.729Z,-2.39
2023-11-28T03:26:03.984Z,-2.48
2023-11-28T03:28:31.152Z,-2.37
2023-11-28T03:30:58.170Z,-2.46
2023-11-28T03:33:25.914Z,-2.51
2023-11-28T03:35:52.901Z,-2.55
2023-11-28T03:38:19.868Z,-2.55
2023-11-28T03:40:46.757Z,-2.56
2023-11-28T03:43:13.908Z,-2.50
2023-11-28T03:45:40.785Z,-2.55
2023-11-28T03:48:07.848Z,-2.59
2023-11-28T03:50:34.863Z,-2.58
2023-11-28T03:53:01.922Z,-2.58
2023-11-28T03:55:30.433Z,-2.57
2023-11-28T03:57:57.399Z,-2.60
2023-11-28T04:00:24.509Z,-2.63
2023-11-28T04:02:51.437Z,-2.62
2023-11-28T04:05:19.584Z,-2.66
2023-11-28T04:07:46.703Z,-2.63
2023-11-28T04:10:14.490Z,-2.60
2023-11-28T04:12:41.936Z,-2.62
2023-11-28T04:15:09.765Z,-2.66
2023-11-28T04:17:37.440Z,-2.67
2023-11-28T04:20:04.768Z,-2.76
2023-11-28T04:22:31.712Z,-2.78
2023-11-28T04:24:58.773Z,-2.75
2023-11-28T04:27:25.630Z,-2.67
2023-11-28T04:29:53.768Z,-2.70
2023-11-28T04:32:21.273Z,-2.73
2023-11-28T04:34:49.065Z,-2.78
2023-11-28T04:37:16.002Z,-2.82
2023-11-28T04:39:46.848Z,-2.80
2023-11-28T04:42:13.753Z,-2.79
2023-11-28T04:44:41.538Z,-2.79
2023-11-28T04:47:08.624Z,-2.73
2023-11-28T04:49:35.617Z,-2.77
2023-11-28T04:52:02.526Z,-2.84
2023-11-28T04:54:29.428Z,-2.83
2023-11-28T04:56:56.367Z,-2.82
2023-11-28T04:59:23.827Z,-2.86
2023-11-28T05:01:50.761Z,-2.81
2023-11-28T05:04:17.773Z,-2.88
2023-11-28T05:06:44.963Z,-2.87
2023-11-28T05:09:12.740Z,-2.87
2023-11-28T05:11:39.802Z,-2.88
2023-11-28T05:14:06.971Z,-2.88
2023-11-28T05:16:44.974Z,-2.84
2023-11-28T05:19:16.734Z,-2.88
2023-11-28T05:21:44.817Z,-2.88
2023-11-28T05:24:12.109Z,-2.88
2023-11-28T05:26:38.937Z,-2.83
2023-11-28T05:29:06.679Z,-2.81
2023-11-28T05:31:35.023Z,-2.81
2023-11-28T05:34:02.489Z,-2.86
2023-11-28T05:36:29.922Z,-2.90
2023-11-28T05:38:56.783Z,-2.92
2023-11-28T05:41:25.146Z,-2.99
2023-11-28T05:43:53.627Z,-2.58
2023-11-28T05:46:22.346Z,-2.69
2023-11-28T05:48:49.991Z,-2.87
2023-11-28T05:51:17.389Z,-2.89
2023-11-28T05:53:44.629Z,-2.92
2023-11-28T05:56:13.420Z,-3.03
2023-11-28T05:58:40.816Z,-3.02
2023-11-28T06:01:08.610Z,-3.03
2023-11-28T06:03:36.746Z,-3.10
2023-11-28T06:06:05.760Z,-3.10
2023-11-28T06:08:33.679Z,-3.10
2023-11-28T06:11:01.956Z,-3.10
2023-11-28T06:13:29.348Z,-3.10
2023-11-28T06:15:56.270Z,-3.10
2023-11-28T06:18:23.361Z,-3.14
2023-11-28T06:20:50.575Z,-3.11
2023-11-28T06:23:20.412Z,-3.15
2023-11-28T06:25:48.075Z,-3.11
2023-11-28T06:28:14.980Z,-3.07
2023-11-28T06:30:41.839Z,-3.05
2023-11-28T06:33:08.935Z,-3.04
2023-11-28T06:35:36.500Z,-3.07
2023-11-28T06:38:03.783Z,-3.10
2023-11-28T06:40:30.691Z,-3.13
2023-11-28T06:43:00.481Z,-3.09
2023-11-28T06:45:27.638Z,-3.05
2023-11-28T06:47:54.767Z,-3.09
2023-11-28T06:50:22.017Z,-3.10
2023-11-28T06:52:49.289Z,-3.08
2023-11-28T06:55:19.246Z,-3.16
2023-11-28T06:57:47.925Z,-3.19
2023-11-28T07:00:15.350Z,-3.26
2023-11-28T07:02:42.300Z,-3.23
2023-11-28T07:05:09.506Z,-3.28
2023-11-28T07:07:36.743Z,-3.26
2023-11-28T07:10:06.548Z,-3.23
2023-11-28T07:12:33.438Z,-3.20
2023-11-28T07:15:00.346Z,-3.15
2023-11-28T07:17:27.801Z,-3.11
2023-11-28T07:19:54.791Z,-3.19
2023-11-28T07:22:22.367Z,-3.18
2023-11-28T07:24:49.320Z,-3.17
2023-11-28T07:27:16.536Z,-3.22
2023-11-28T07:29:43.395Z,-3.20
2023-11-28T07:32:10.410Z,-3.21
2023-11-28T07:34:38.843Z,-3.20
2023-11-28T07:37:05.799Z,-3.10
2023-11-28T07:39:32.701Z,-3.09
2023-11-28T07:41:59.646Z,-3.11
2023-11-28T07:44:26.717Z,-3.19
2023-11-28T07:46:53.999Z,-3.10
2023-11-28T07:49:20.939Z,-3.07
2023-11-28T07:51:47.841Z,-3.09
2023-11-28T07:54:14.684Z,-3.12
2023-11-28T07:56:41.555Z,-3.02
2023-11-28T07:59:08.788Z,-3.02
2023-11-28T08:01:35.771Z,-3.11
2023-11-28T08:04:02.880Z,-3.09
2023-11-28T08:06:29.837Z,-3.09
2023-11-28T08:08:57.771Z,-3.10
2023-11-28T08:11:25.072Z,-3.16
2023-11-28T08:13:52.686Z,-3.18
2023-11-28T08:16:19.970Z,-3.11
2023-11-28T08:18:46.940Z,-3.06
2023-11-28T08:21:13.861Z,-3.16
2023-11-28T08:23:40.897Z,-3.19
2023-11-28T08:26:09.011Z,-3.10
2023-11-28T08:28:37.563Z,-3.10
2023-11-28T08:31:05.116Z,-3.08
2023-11-28T08:33:32.304Z,-3.13
2023-11-28T08:35:59.338Z,-2.96
2023-11-28T08:38:26.632Z,-2.97
2023-11-28T08:40:53.705Z,-3.00
2023-11-28T08:43:20.804Z,-2.99
2023-11-28T08:45:47.759Z,-2.98
2023-11-28T08:48:14.822Z,-2.92
2023-11-28T08:50:41.879Z,-2.81
2023-11-28T08:53:09.308Z,-2.84
2023-11-28T08:55:36.207Z,-2.86
2023-11-28T08:58:03.355Z,-2.85
2023-11-28T09:00:31.101Z,-2.73
2023-11-28T09:02:58.077Z,-2.76
2023-11-28T09:05:25.203Z,-2.79
2023-11-28T09:07:54.122Z,-2.77
2023-11-28T09:10:22.460Z,-2.80
2023-11-28T09:12:49.652Z,-2.73
2023-11-28T09:15:17.433Z,-2.64
2023-11-28T09:17:44.516Z,-2.71
2023-11-28T09:20:11.916Z,-2.64
2023-11-28T09:22:39.023Z,-2.58
2023-11-28T09:25:06.472Z,-2.66
2023-11-28T09:27:33.396Z,-2.60
2023-11-28T09:30:00.358Z,-2.55
2023-11-28T09:32:29.431Z,-2.47
2023-11-28T09:34:56.470Z,-2.63
2023-11-28T09:37:23.505Z,-2.54
2023-11-28T09:39:50.965Z,-2.63
2023-11-28T09:42:20.079Z,-2.63
2023-11-28T09:44:48.795Z,-2.58
2023-11-28T09:47:17.563Z,-2.60
2023-11-28T09:49:45.898Z,-2.55
2023-11-28T09:52:15.584Z,-2.61
2023-11-28T09:54:42.628Z,-2.63
2023-11-28T09:57:11.467Z,-2.67
2023-11-28T09:59:44.887Z,-2.60
2023-11-28T10:02:16.802Z,-2.64
2023-11-28T10:04:44.519Z,-2.70
2023-11-28T10:07:12.919Z,-2.61
2023-11-28T10:09:43.004Z,-2.58
2023-11-28T10:12:13.163Z,-2.60
2023-11-28T10:14:41.079Z,-2.56
2023-11-28T10:17:10.931Z,-2.28
2023-11-28T10:19:38.017Z,-2.34
2023-11-28T10:22:08.258Z,-2.37
2023-11-28T10:24:35.521Z,-2.30
2023-11-28T10:27:02.872Z,-2.19
2023-11-28T10:29:30.240Z,-2.14
2023-11-28T10:31:57.383Z,-2.17
2023-11-28T10:34:24.358Z,-2.15
2023-11-28T10:36:51.343Z,-2.04
2023-11-28T10:39:20.925Z,-2.15
2023-11-28T10:41:48.800Z,-2.21
2023-11-28T10:44:15.915Z,-2.19
2023-11-28T10:46:43.063Z,-2.18
2023-11-28T10:49:10.517Z,-2.06
2023-11-28T10:51:37.631Z,-2.16
2023-11-28T10:54:11.284Z,-2.19
2023-11-28T10:56:50.761Z,-2.15
2023-11-28T10:59:37.442Z,-2.16
2023-11-28T11:02:06.708Z,-2.22
2023-11-28T11:04:34.219Z,-2.20
2023-11-28T11:07:01.564Z,-2.31
2023-11-28T11:09:28.864Z,-2.31
2023-11-28T11:11:57.569Z,-2.28
2023-11-28T11:14:46.912Z,-2.32
2023-11-28T11:17:29.442Z,-2.22
2023-11-28T11:19:57.967Z,-2.13
2023-11-28T11:22:28.447Z,-2.18
2023-11-28T11:24:55.607Z,-2.17
2023-11-28T11:27:22.815Z,-2.10
2023-11-28T11:29:49.944Z,-2.23
2023-11-28T11:32:18.310Z,-2.27
2023-11-28T11:34:49.817Z,-2.07
2023-11-28T11:37:30.663Z,-2.24
2023-11-28T11:39:57.550Z,-2.27
2023-11-28T11:42:28.419Z,-2.26
2023-11-28T11:45:04.374Z,-2.38
2023-11-28T11:47:32.929Z,-2.32
2023-11-28T11:50:02.190Z,-2.08
2023-11-28T11:52:30.928Z,-1.87
2023-11-28T11:55:13.875Z,-1.87
2023-11-28T11:57:44.359Z,-1.81
2023-11-28T12:00:12.778Z,-1.82
2023-11-28T12:02:43.322Z,-1.98
2023-11-28T12:05:12.280Z,-2.06
2023-11-28T12:07:41.495Z,-1.98
2023-11-28T12:10:13.891Z,-2.07
2023-11-28T12:12:41.862Z,-2.06
2023-11-28T12:15:11.677Z,-1.95
2023-11-28T12:17:41.603Z,-1.89
2023-11-28T12:20:10.548Z,-1.55
2023-11-28T12:22:37.748Z,-1.49
2023-11-28T12:25:04.935Z,-1.59
2023-11-28T12:27:33.375Z,-1.65
2023-11-28T12:30:05.407Z,-1.59
2023-11-28T12:32:36.496Z,-1.46
2023-11-28T12:35:06.297Z,-1.39
2023-11-28T12:37:33.252Z,-1.22
2023-11-28T12:40:01.382Z,-1.16
2023-11-28T12:42:28.461Z,-0.96
2023-11-28T12:44:58.849Z,-0.88
2023-11-28T12:47:27.660Z,-0.76
2023-11-28T12:49:54.852Z,-0.68
2023-11-28T12:52:26.145Z,-0.69
2023-11-28T12:54:53.480Z,-0.60
2023-11-28T12:57:22.660Z,-0.49
2023-11-28T12:59:49.941Z,-0.39
2023-11-28T13:02:17.010Z,-0.30
2023-11-28T13:04:44.197Z,-0.20
2023-11-28T13:07:18.544Z,-0.09
2023-11-28T13:09:54.144Z,-0.08
2023-11-28T13:12:21.086Z,-0.16
2023-11-28T13:14:48.127Z,-0.11
2023-11-28T13:17:16.060Z,0.22
2023-11-28T13:19:43.110Z,0.29
2023-11-28T13:22:12.498Z,0.23
2023-11-28T13:24:39.503Z,0.31
2023-11-28T13:27:07.733Z,0.42
2023-11-28T13:29:39.528Z,0.20
2023-11-28T13:32:07.165Z,0.24
2023-11-28T13:34:34.340Z,0.19
2023-11-28T13:37:01.233Z,0.09
2023-11-28T13:39:28.413Z,0.02
2023-11-28T13:41:55.311Z,-0.08
2023-11-28T13:44:23.611Z,0.11
2023-11-28T13:46:50.657Z,0.24
2023-11-28T13:49:17.736Z,0.13
2023-11-28T13:51:46.665Z,0.09
2023-11-28T13:54:13.647Z,-0.22
2023-11-28T13:56:40.638Z,-0.15
2023-11-28T13:59:07.629Z,-0.04
2023-11-28T14:01:34.808Z,-0.26
2023-11-28T14:04:01.939Z,-0.12
2023-11-28T14:06:28.992Z,-0.09
2023-11-28T14:08:55.951Z,-0.02
2023-11-28T14:11:22.991Z,-0.11
2023-11-28T14:13:50.167Z,-0.21
2023-11-28T14:16:17.619Z,-0.18
2023-11-28T14:18:45.082Z,-0.38
2023-11-28T14:21:12.061Z,-0.43
2023-11-28T14:23:39.390Z,-0.48
2023-11-28T14:26:08.552Z,-0.53
2023-11-28T14:28:35.553Z,-0.55
2023-11-28T14:31:03.761Z,-0.57
2023-11-28T14:33:31.107Z,-0.54
2023-11-28T14:35:58.409Z,-0.64
2023-11-28T14:38:25.769Z,-0.59
2023-11-28T14:40:53.354Z,-0.55
2023-11-28T14:43:20.344Z,-0.56
2023-11-28T14:45:47.280Z,-0.63
2023-11-28T14:48:14.554Z,-0.72
2023-11-28T14:50:42.057Z,-0.76
2023-11-28T14:53:12.669Z,-0.83
2023-11-28T14:55:42.013Z,-0.91
2023-11-28T14:58:09.376Z,-1.02
2023-11-28T15:00:36.430Z,-1.09
2023-11-28T15:03:06.303Z,-1.13
2023-11-28T15:05:34.326Z,-1.24
2023-11-28T15:08:32.323Z,-1.18
2023-11-28T15:11:01.079Z,-1.16
2023-11-28T15:13:29.794Z,-1.16
2023-11-28T15:16:08.295Z,-1.18
2023-11-28T15:18:36.988Z,-1.17
2023-11-28T15:21:27.952Z,-1.11
2023-11-28T15:23:55.825Z,-1.17
2023-11-28T15:26:44.330Z,-1.16
2023-11-28T15:29:24.440Z,-1.19
2023-11-28T15:31:56.155Z,-1.16
2023-11-28T15:34:25.767Z,-1.19
2023-11-28T15:37:05.623Z,-1.31
2023-11-28T15:39:36.287Z,-1.41
2023-11-28T15:42:03.431Z,-1.43
2023-11-28T15:44:30.738Z,-1.43
2023-11-28T15:47:00.468Z,-1.59
2023-11-28T15:49:39.953Z,-1.53
2023-11-28T15:52:15.557Z,-1.53
2023-11-28T15:54:43.615Z,-1.53
2023-11-28T15:57:12.692Z,-1.48
2023-11-28T15:59:42.431Z,-1.53
2023-11-28T16:02:12.128Z,-1.72
2023-11-28T16:04:41.208Z,-1.83
2023-11-28T16:07:09.419Z,-1.87
2023-11-28T16:09:37.845Z,-1.81
2023-11-28T16:12:05.227Z,-1.73
2023-11-28T16:14:32.438Z,-1.79
2023-11-28T16:16:59.870Z,-1.78
2023-11-28T16:19:27.211Z,-1.78
2023-11-28T16:21:55.859Z,-1.84
2023-11-28T16:24:22.896Z,-1.82
2023-11-28T16:26:51.921Z,-1.92
2023-11-28T16:29:34.539Z,-1.94
2023-11-28T16:32:05.415Z,-1.97
2023-11-28T16:34:33.729Z,-2.04
2023-11-28T16:37:01.188Z,-1.96
2023-11-28T16:39:33.864Z,-1.95
2023-11-28T16:42:01.011Z,-2.01
2023-11-28T16:44:28.971Z,-1.98
2023-11-28T16:46:55.986Z,-1.94
2023-11-28T16:49:23.194Z,-2.09
2023-11-28T16:51:50.197Z,-2.04
2023-11-28T16:54:17.933Z,-2.04
2023-11-28T16:56:46.688Z,-2.04
2023-11-28T16:59:14.392Z,-1.99
2023-11-28T17:01:41.270Z,-2.00
2023-11-28T17:04:09.280Z,-1.98
2023-11-28T17:06:36.235Z,-2.08
2023-11-28T17:09:03.205Z,-2.10
2023-11-28T17:11:31.496Z,-2.13
2023-11-28T17:13:58.490Z,-2.37
2023-11-28T17:16:26.313Z,-2.53
2023-11-28T17:18:53.283Z,-2.61
2023-11-28T17:21:20.853Z,-2.87
2023-11-28T17:23:48.533Z,-2.85
2023-11-28T17:26:18.012Z,-2.78
2023-11-28T17:28:48.461Z,-2.82
2023-11-28T17:31:16.576Z,-2.74
2023-11-28T17:33:43.719Z,-2.64
2023-11-28T17:36:11.065Z,-2.63
2023-11-28T17:38:38.537Z,-2.75
2023-11-28T17:41:08.374Z,-2.69
2023-11-28T17:43:35.344Z,-2.65
2023-11-28T17:46:02.689Z,-2.56
2023-11-28T17:48:30.063Z,-2.62
2023-11-28T17:50:57.004Z,-2.54
2023-11-28T17:53:24.614Z,-2.58
2023-11-28T17:55:51.600Z,-2.63
2023-11-28T17:58:18.593Z,-2.61
2023-11-28T18:00:45.540Z,-2.45
2023-11-28T18:03:12.674Z,-2.45
2023-11-28T18:05:40.004Z,-2.50
2023-11-28T18:08:07.139Z,-2.39
2023-11-28T18:10:34.385Z,-2.43
2023-11-28T18:13:03.810Z,-2.06
2023-11-28T18:15:33.215Z,-2.30
2023-11-28T18:18:03.968Z,-2.55
2023-11-28T18:20:36.096Z,-2.65
2023-11-28T18:23:03.156Z,-2.64
2023-11-28T18:25:30.280Z,-2.55
2023-11-28T18:27:58.700Z,-2.52
2023-11-28T18:30:26.063Z,-2.47
2023-11-28T18:32:53.364Z,-2.64
2023-11-28T18:35:20.610Z,-2.63
2023-11-28T18:37:47.543Z,-2.74
2023-11-28T18:40:14.535Z,-2.71
2023-11-28T18:42:41.644Z,-2.67
2023-11-28T18:45:10.412Z,-2.73
2023-11-28T18:47:37.933Z,-2.87
2023-11-28T18:50:05.284Z,-2.75
2023-11-28T18:52:32.250Z,-2.77
2023-11-28T18:54:59.160Z,-2.71
2023-11-28T18:57:26.474Z,-2.49
2023-11-28T19:03:00.806Z,-2.56
2023-11-28T19:05:32.810Z,-2.63
2023-11-28T19:08:02.957Z,-2.67
2023-11-28T19:10:31.116Z,-2.78
2023-11-28T19:12:58.314Z,-2.67
2023-11-28T19:15:25.517Z,-2.74
2023-11-28T19:17:56.273Z,-2.65
2023-11-28T19:20:23.976Z,-2.75
2023-11-28T19:22:52.118Z,-2.69
2023-11-28T19:25:19.040Z,-2.78
2023-11-28T19:27:46.004Z,-2.78
2023-11-28T19:30:15.967Z,-2.69
2023-11-28T19:32:43.095Z,-2.90
2023-11-28T19:35:11.532Z,-3.38
2023-11-28T19:37:38.616Z,-3.19
2023-11-28T19:40:06.156Z,-3.27
2023-11-28T19:42:33.098Z,-3.14
2023-11-28T19:45:00.035Z,-3.30
2023-11-28T19:47:27.200Z,-3.34
2023-11-28T19:49:54.310Z,-3.58
2023-11-28T19:52:21.474Z,-3.94
2023-11-28T19:54:48.639Z,-3.73
2023-11-28T19:57:16.103Z,-3.53
2023-11-28T19:59:46.133Z,-3.39
2023-11-28T20:02:13.100Z,-3.36
2023-11-28T20:04:40.199Z,-3.27
2023-11-28T20:07:07.642Z,-3.29
2023-11-28T20:09:35.752Z,-3.72
2023-11-28T20:12:02.927Z,-3.89
2023-11-28T20:14:29.895Z,-3.87
2023-11-28T20:16:58.198Z,-3.88
2023-11-28T20:19:27.579Z,-3.90
2023-11-28T20:21:57.645Z,-3.90
2023-11-28T20:24:24.699Z,-4.08
2023-11-28T20:26:52.128Z,-4.14
2023-11-28T20:29:19.382Z,-3.91
2023-11-28T20:31:46.450Z,-3.61
2023-11-28T20:34:13.516Z,-3.60
2023-11-28T20:36:41.129Z,-3.66
2023-11-28T20:39:08.640Z,-3.55
2023-11-28T20:41:36.555Z,-3.43
2023-11-28T20:44:04.236Z,-3.44
2023-11-28T20:46:31.630Z,-3.63
2023-11-28T20:48:58.654Z,-3.52
2023-11-28T20:51:25.859Z,-3.65
2023-11-28T20:53:53.017Z,-3.49
2023-11-28T20:56:21.717Z,-3.30
2023-11-28T20:58:50.028Z,-3.24
2023-11-28T21:01:20.110Z,-3.03
2023-11-28T21:03:47.514Z,-3.29
2023-11-28T21:06:15.309Z,-3.25
2023-11-28T21:08:43.703Z,-3.14
2023-11-28T21:11:15.579Z,-3.05
2023-11-28T21:13:42.814Z,-2.87
2023-11-28T21:16:20.451Z,-2.78
2023-11-28T21:18:47.587Z,-2.77
2023-11-28T21:21:23.626Z,-2.79
2023-11-28T21:23:50.642Z,-2.67
2023-11-28T21:26:17.876Z,-2.61
2023-11-28T21:28:45.038Z,-2.63
2023-11-28T21:31:13.168Z,-2.56
2023-11-28T21:33:40.238Z,-2.60
2023-11-28T21:36:08.432Z,-2.61
2023-11-28T21:38:35.890Z,-2.69
2023-11-28T21:41:08.857Z,-2.70
2023-11-28T21:43:39.275Z,-2.71
2023-11-28T21:46:06.819Z,-2.76
2023-11-28T21:48:34.018Z,-2.80
2023-11-28T21:51:02.885Z,-2.83
2023-11-28T21:53:30.398Z,-2.83
2023-11-28T21:55:57.569Z,-2.91
2023-11-28T21:58:24.545Z,-2.92
2023-11-28T22:00:51.819Z,-2.81
2023-11-28T22:03:19.064Z,-2.76
2023-11-28T22:05:46.463Z,-2.75
2023-11-28T22:08:14.199Z,-2.73
2023-11-28T22:10:41.209Z,-2.71
2023-11-28T22:13:08.398Z,-2.63
2023-11-28T22:15:35.599Z,-2.61
2023-11-28T22:18:02.798Z,-2.55
2023-11-28T22:20:30.112Z,-2.58
2023-11-28T22:22:59.686Z,-2.61
2023-11-28T22:25:26.954Z,-2.50
2023-11-28T22:27:54.530Z,-2.45
2023-11-28T22:30:22.177Z,-2.44
2023-11-28T22:32:50.122Z,-2.43
2023-11-28T22:35:20.211Z,-2.49
2023-11-28T22:37:48.427Z,-2.50
2023-11-28T22:40:16.486Z,-2.47
2023-11-28T22:42:44.143Z,-2.50
2023-11-28T22:45:13.096Z,-2.46
2023-11-28T22:47:40.934Z,-2.46
2023-11-28T22:50:08.776Z,-2.45
2023-11-28T22:52:35.886Z,-2.46
2023-11-28T22:55:07.087Z,-2.48
2023-11-28T22:57:34.033Z,-2.44
2023-11-28T23:00:01.764Z,-2.38
2023-11-28T23:02:30.775Z,-2.42
2023-11-28T23:04:57.772Z,-2.38
2023-11-28T23:07:25.810Z,-2.36
2023-11-28T23:09:53.315Z,-2.38
2023-11-28T23:12:20.372Z,-2.42
2023-11-28T23:14:47.488Z,-2.38
2023-11-28T23:17:14.788Z,-2.35
2023-11-28T23:19:41.814Z,-2.35
2023-11-28T23:22:09.195Z,-2.26
2023-11-28T23:24:36.526Z,-2.28
2023-11-28T23:27:03.583Z,-2.32
2023-11-28T23:29:30.833Z,-2.30
2023-11-28T23:31:57.908Z,-2.33
2023-11-28T23:34:24.814Z,-2.31
2023-11-28T23:36:52.676Z,-2.26
2023-11-28T23:39:21.375Z,-2.23
2023-11-28T23:41:48.820Z,-2.22
2023-11-28T23:44:15.961Z,-2.24
2023-11-28T23:46:43.001Z,-2.21
2023-11-28T23:49:10.064Z,-2.16
2023-11-28T23:51:37.309Z,-2.16
2023-11-28T23:54:04.876Z,-2.16
2023-11-28T23:56:34.414Z,-2.10
2023-11-28T23:59:01.362Z,-2.10
